Akers, Louisiana
Current Conditions -  °F | °C
As of 3:35 PM on Sunday 23 Nov 2014 (Local Time) from KHDC Reporting Station
Scattered Clouds Scattered Clouds  
Wind Chill: 24°   Ceiling: Unl
Heat Index: 24°   Visibility: 10mi
Dew Point: 14°   Wind: 10mph
Humidity: 53%   Direction: 220°SW
Pressure: 29.64"   Gusts: 17mph
Location:  30.29°N, 90.4°W
Report Text: KHDC 232135Z AUTO 22009G15KT 10SM SCT038 24/14 A2964 RMK AO2
Loading
Personal Weather Stations






























Interactive Weather Map New forecast layout! Learn more

10-Day Weather Forecast

Advertisements
Track Severe Weather on mobile